createdAt,value
2023-03-22T00:00:59.577Z,78.92
2023-03-22T00:11:02.056Z,79.21
2023-03-22T00:21:04.360Z,79.03
2023-03-22T00:31:07.147Z,78.34
2023-03-22T00:41:11.115Z,79.23
2023-03-22T00:51:14.033Z,80.87
2023-03-22T01:01:16.382Z,79.64
2023-03-22T01:11:18.890Z,81.50
2023-03-22T01:21:21.066Z,80.17
2023-03-22T01:31:23.332Z,80.33
2023-03-22T01:41:25.956Z,79.58
2023-03-22T01:51:28.862Z,79.83
2023-03-22T02:01:31.944Z,80.63
2023-03-22T02:11:38.655Z,78.47
2023-03-22T02:22:15.016Z,79.52
2023-03-22T02:32:51.521Z,79.90
2023-03-22T02:43:23.613Z,79.03
2023-03-22T02:53:37.639Z,79.32
2023-03-22T03:03:39.930Z,79.66
2023-03-22T03:13:42.152Z,78.98
2023-03-22T03:23:57.951Z,78.36
2023-03-22T06:05:13.596Z,98.03
2023-03-22T06:15:16.430Z,92.93
2023-03-22T06:25:18.825Z,88.64
2023-03-22T06:35:21.203Z,85.32
2023-03-22T06:45:23.472Z,79.95
2023-03-22T06:55:26.341Z,79.86
2023-03-22T07:05:28.539Z,79.54
2023-03-22T07:15:33.098Z,73.30
2023-03-22T07:25:35.454Z,67.19
2023-03-22T07:35:38.569Z,69.56
2023-03-22T07:45:41.246Z,70.10
2023-03-22T07:55:43.532Z,67.90
2023-03-22T08:05:45.804Z,67.14
2023-03-22T08:15:48.068Z,61.93
2023-03-22T08:25:50.934Z,55.95
2023-03-22T08:35:53.256Z,48.74
2023-03-22T08:45:55.536Z,45.95
2023-03-22T08:55:58.313Z,45.11
2023-03-22T09:06:00.651Z,43.69
2023-03-22T09:16:03.528Z,45.84
2023-03-22T09:26:08.803Z,43.70
2023-03-22T09:36:12.097Z,42.67
2023-03-22T09:46:22.061Z,44.60
2023-03-22T09:56:27.777Z,44.87
2023-03-22T10:06:31.131Z,44.82
2023-03-22T10:16:35.676Z,45.91
2023-03-22T10:26:41.713Z,46.86
2023-03-22T10:36:44.734Z,44.46
2023-03-22T10:46:50.981Z,44.68
2023-03-22T10:56:53.246Z,43.56
2023-03-22T11:06:56.446Z,42.82
2023-03-22T11:17:08.464Z,44.18
2023-03-22T11:27:19.761Z,44.16
2023-03-22T11:37:22.324Z,42.08
2023-03-22T11:47:30.506Z,42.76
2023-03-22T11:57:34.394Z,41.90
2023-03-22T12:07:37.811Z,43.15
2023-03-22T12:17:51.467Z,45.50
2023-03-22T12:27:58.209Z,44.98
2023-03-22T12:38:12.339Z,43.91
2023-03-22T12:48:46.717Z,44.82
2023-03-22T12:58:53.139Z,44.18
2023-03-22T13:09:09.000Z,43.40
2023-03-22T13:19:27.068Z,42.74
2023-03-22T13:29:38.399Z,42.99
2023-03-22T13:39:40.993Z,42.33
2023-03-22T13:49:48.305Z,42.36
2023-03-22T14:00:32.364Z,42.74
2023-03-22T14:10:45.448Z,42.45
2023-03-22T14:20:53.177Z,43.44
2023-03-22T15:01:51.545Z,45.48
2023-03-22T15:12:02.264Z,44.95
2023-03-22T15:22:19.058Z,43.79
2023-03-22T15:32:26.021Z,44.76
2023-03-22T15:42:43.011Z,42.66
2023-03-22T15:53:05.249Z,43.82
2023-03-22T16:03:07.513Z,44.19
2023-03-22T16:13:19.418Z,46.40
2023-03-22T16:23:23.473Z,47.94
2023-03-22T16:33:25.824Z,49.64
2023-03-22T16:43:28.303Z,51.28
2023-03-22T16:53:37.771Z,53.76
2023-03-22T17:03:44.376Z,55.64
2023-03-22T17:13:46.740Z,57.52
2023-03-22T17:23:50.085Z,58.55
2023-03-22T17:33:53.289Z,60.61
2023-03-22T17:43:55.654Z,61.90
2023-03-22T18:04:07.165Z,65.66
2023-03-22T18:14:21.154Z,65.57
2023-03-22T18:24:30.472Z,64.48
2023-03-22T18:34:33.007Z,65.59
2023-03-22T18:44:35.599Z,66.50
2023-03-22T18:54:39.098Z,65.72
2023-03-22T19:04:42.249Z,65.26
2023-03-22T19:24:55.648Z,64.58
2023-03-22T19:34:58.026Z,66.53
2023-03-22T19:45:00.613Z,67.60
2023-03-22T19:55:02.944Z,67.57
2023-03-22T20:05:14.792Z,69.50
2023-03-22T20:15:19.900Z,69.16
2023-03-22T20:25:22.714Z,70.30
2023-03-22T20:35:25.011Z,70.18
2023-03-22T20:45:27.606Z,69.92
2023-03-22T20:55:30.036Z,70.65
2023-03-22T21:05:32.322Z,72.01
2023-03-22T21:15:34.607Z,70.52
2023-03-22T21:25:36.921Z,70.96
2023-03-22T21:40:14.590Z,68.60
2023-03-22T21:50:17.437Z,67.86
2023-03-22T22:00:20.110Z,69.68
2023-03-22T22:10:23.173Z,68.60
2023-03-22T22:20:26.401Z,68.38
2023-03-22T22:30:28.771Z,69.04
2023-03-22T22:40:31.104Z,67.11
2023-03-22T22:50:33.713Z,66.96
2023-03-22T23:00:36.114Z,66.57
2023-03-22T23:10:39.121Z,66.82
2023-03-22T23:20:42.357Z,66.66
2023-03-22T23:30:44.781Z,68.00
2023-03-22T23:40:47.066Z,68.20
2023-03-22T23:50:49.345Z,67.95
